createdAt,value
2022-09-22T00:00:55.622Z,54.34
2022-09-22T00:03:23.140Z,53.90
2022-09-22T00:05:50.373Z,53.09
2022-09-22T00:08:17.599Z,53.04
2022-09-22T00:10:45.062Z,54.74
2022-09-22T00:13:12.260Z,53.43
2022-09-22T00:15:44.965Z,55.57
2022-09-22T00:18:12.479Z,53.84
2022-09-22T00:20:39.870Z,53.26
2022-09-22T00:23:07.495Z,53.30
2022-09-22T00:25:34.967Z,52.61
2022-09-22T00:28:02.634Z,52.65
2022-09-22T00:30:31.258Z,53.58
2022-09-22T00:32:58.774Z,52.41
2022-09-22T00:35:26.141Z,53.02
2022-09-22T00:37:53.361Z,53.49
2022-09-22T00:40:20.877Z,53.17
2022-09-22T00:42:48.523Z,52.26
2022-09-22T00:45:15.869Z,52.18
2022-09-22T00:47:43.868Z,52.71
2022-09-22T00:50:13.877Z,53.01
2022-09-22T00:52:50.420Z,52.73
2022-09-22T00:55:21.675Z,52.34
2022-09-22T00:57:48.892Z,52.37
2022-09-22T01:00:16.360Z,52.40
2022-09-22T01:02:45.727Z,52.70
2022-09-22T01:05:12.935Z,52.39
2022-09-22T01:07:40.132Z,52.13
2022-09-22T01:10:07.784Z,51.77
2022-09-22T01:12:35.131Z,52.21
2022-09-22T01:15:11.416Z,51.96
2022-09-22T01:17:42.078Z,51.72
2022-09-22T01:20:33.579Z,51.54
2022-09-22T01:23:19.912Z,51.53
2022-09-22T01:25:47.085Z,51.61
2022-09-22T01:28:23.396Z,51.94
2022-09-22T01:30:53.665Z,52.31
2022-09-22T01:33:40.126Z,52.16
2022-09-22T01:36:07.298Z,52.54
2022-09-22T01:38:37.098Z,51.97
2022-09-22T01:41:08.219Z,52.25
2022-09-22T01:43:50.987Z,52.09
2022-09-22T01:46:20.826Z,51.38
2022-09-22T01:48:49.110Z,51.27
2022-09-22T01:51:35.157Z,52.48
2022-09-22T01:54:04.372Z,51.86
2022-09-22T01:56:31.724Z,52.55
2022-09-22T01:59:00.030Z,51.79
2022-09-22T02:01:29.131Z,52.54
2022-09-22T02:04:00.525Z,52.08
2022-09-22T02:06:35.819Z,52.45
2022-09-22T02:09:04.990Z,54.20
2022-09-22T02:11:32.294Z,52.73
2022-09-22T02:13:59.502Z,52.83
2022-09-22T02:16:27.589Z,53.04
2022-09-22T02:19:12.481Z,53.38
2022-09-22T02:21:40.784Z,52.98
2022-09-22T02:24:24.644Z,52.97
2022-09-22T02:26:52.097Z,53.93
2022-09-22T02:29:19.313Z,53.18
2022-09-22T02:31:46.528Z,52.78
2022-09-22T02:34:14.024Z,53.95
2022-09-22T02:36:50.094Z,53.09
2022-09-22T02:39:36.279Z,53.19
2022-09-22T02:42:22.109Z,52.64
2022-09-22T02:44:49.565Z,52.87
2022-09-22T02:47:20.926Z,53.25
2022-09-22T02:49:48.440Z,52.80
2022-09-22T02:52:18.719Z,52.29
2022-09-22T02:54:45.920Z,52.37
2022-09-22T02:57:13.112Z,52.62
2022-09-22T02:59:40.600Z,52.22
2022-09-22T03:02:07.865Z,52.41
2022-09-22T03:04:35.102Z,52.02
2022-09-22T03:07:02.639Z,51.96
2022-09-22T03:09:29.932Z,52.59
2022-09-22T03:11:57.109Z,52.73
2022-09-22T03:14:24.621Z,52.64
2022-09-22T03:16:51.850Z,52.81
2022-09-22T03:19:19.038Z,52.53
2022-09-22T03:21:46.529Z,52.48
2022-09-22T03:24:13.742Z,52.04
2022-09-22T03:26:41.031Z,52.24
2022-09-22T03:29:08.745Z,53.45
2022-09-22T03:31:36.104Z,53.04
2022-09-22T03:34:03.488Z,53.16
2022-09-22T03:36:30.974Z,53.13
2022-09-22T03:38:59.406Z,52.78
2022-09-22T03:41:26.771Z,53.06
2022-09-22T03:43:54.315Z,53.13
2022-09-22T03:46:21.636Z,54.23
2022-09-22T03:48:48.909Z,53.44
2022-09-22T03:51:16.382Z,54.02
2022-09-22T03:53:43.634Z,54.18
2022-09-22T03:56:12.209Z,54.84
2022-09-22T03:58:40.334Z,55.27
2022-09-22T04:01:07.681Z,55.27
2022-09-22T04:03:35.312Z,54.18
2022-09-22T04:06:02.732Z,54.24
2022-09-22T04:08:29.951Z,54.44
2022-09-22T04:11:01.087Z,54.05
2022-09-22T04:13:28.459Z,53.43
2022-09-22T04:15:55.744Z,53.34
2022-09-22T04:18:23.251Z,53.13
2022-09-22T04:20:51.055Z,53.01
2022-09-22T04:23:18.296Z,53.30
2022-09-22T04:25:45.715Z,53.15
2022-09-22T04:28:13.031Z,52.93
2022-09-22T04:30:40.336Z,52.93
2022-09-22T04:33:07.846Z,52.80
2022-09-22T04:35:35.064Z,52.40
2022-09-22T04:38:02.311Z,52.52
2022-09-22T04:40:30.213Z,52.51
2022-09-22T04:42:57.635Z,53.15
2022-09-22T04:45:24.940Z,53.04
2022-09-22T04:47:52.979Z,53.80
2022-09-22T04:50:20.843Z,53.89
2022-09-22T04:52:48.915Z,55.50
2022-09-22T04:55:16.573Z,53.95
2022-09-22T04:57:54.056Z,53.78
2022-09-22T05:00:22.511Z,54.37
2022-09-22T05:02:49.839Z,53.86
2022-09-22T05:05:17.523Z,53.28
2022-09-22T05:07:46.291Z,52.17
2022-09-22T05:10:13.888Z,52.60
2022-09-22T05:12:41.497Z,52.99
2022-09-22T05:15:09.527Z,52.79
2022-09-22T05:17:36.940Z,52.43
2022-09-22T05:20:04.761Z,52.51
2022-09-22T05:22:36.357Z,53.57
2022-09-22T05:25:07.474Z,53.03
2022-09-22T05:27:35.007Z,52.04
2022-09-22T05:30:02.531Z,51.46
2022-09-22T05:32:29.722Z,52.29
2022-09-22T05:34:57.180Z,52.51
2022-09-22T05:37:24.362Z,53.28
2022-09-22T05:39:51.544Z,53.94
2022-09-22T05:42:18.970Z,53.14
2022-09-22T05:44:46.197Z,52.45
2022-09-22T05:47:13.393Z,53.17
2022-09-22T05:49:40.923Z,52.87
2022-09-22T05:52:08.242Z,52.51
2022-09-22T05:54:35.455Z,54.54
2022-09-22T05:57:03.043Z,54.72
2022-09-22T05:59:30.207Z,54.97
2022-09-22T06:01:59.650Z,53.47
2022-09-22T06:04:27.646Z,53.20
2022-09-22T06:06:54.827Z,52.89
2022-09-22T06:09:22.025Z,54.96
2022-09-22T06:11:49.550Z,53.44
2022-09-22T06:14:16.743Z,54.47
2022-09-22T06:16:43.947Z,53.83
2022-09-22T06:19:11.471Z,54.31
2022-09-22T06:21:39.045Z,54.23
2022-09-22T06:24:06.882Z,52.73
2022-09-22T06:26:34.439Z,54.11
2022-09-22T06:29:01.610Z,50.89
2022-09-22T06:31:28.859Z,50.37
2022-09-22T06:33:56.493Z,49.15
2022-09-22T06:36:33.061Z,49.04
2022-09-22T06:39:01.041Z,51.18
2022-09-22T06:41:28.955Z,51.04
2022-09-22T06:43:57.526Z,55.05
2022-09-22T06:46:26.293Z,52.15
2022-09-22T06:48:59.584Z,52.32
2022-09-22T06:51:27.872Z,53.09
2022-09-22T06:53:55.184Z,53.57
2022-09-22T06:56:23.628Z,52.95
2022-09-22T06:59:08.801Z,52.30
2022-09-22T07:01:37.552Z,53.48
2022-09-22T07:04:05.316Z,53.71
2022-09-22T07:06:32.663Z,52.23
2022-09-22T07:09:00.003Z,54.50
2022-09-22T07:11:27.581Z,52.77
2022-09-22T07:13:55.079Z,53.31
2022-09-22T07:16:23.125Z,54.34
2022-09-22T07:18:51.687Z,55.68
2022-09-22T07:21:24.699Z,53.33
2022-09-22T07:23:53.801Z,54.24
2022-09-22T07:26:22.109Z,53.60
2022-09-22T07:28:52.007Z,53.02
2022-09-22T07:31:19.685Z,52.69
2022-09-22T07:33:46.947Z,55.01
2022-09-22T07:36:14.299Z,53.51
2022-09-22T07:38:42.391Z,53.38
2022-09-22T07:41:12.027Z,55.44
2022-09-22T07:43:39.602Z,53.95
2022-09-22T07:46:07.376Z,52.48
2022-09-22T07:48:38.151Z,52.26
2022-09-22T07:51:05.944Z,52.28
2022-09-22T07:53:33.469Z,53.25
2022-09-22T07:56:09.891Z,53.18
2022-09-22T07:58:37.439Z,53.50
2022-09-22T08:01:05.538Z,53.49
2022-09-22T08:03:34.167Z,53.32
2022-09-22T08:06:10.072Z,52.34
2022-09-22T08:08:42.219Z,52.45
2022-09-22T08:11:13.626Z,52.27
2022-09-22T08:13:43.036Z,51.59
2022-09-22T08:16:11.635Z,51.39
2022-09-22T08:18:39.728Z,51.82
2022-09-22T08:21:07.899Z,52.48
2022-09-22T08:23:35.299Z,53.22
2022-09-22T08:26:03.480Z,52.31
2022-09-22T08:28:31.350Z,53.31
2022-09-22T08:30:58.959Z,53.10
2022-09-22T08:33:26.684Z,53.79
2022-09-22T08:35:54.721Z,54.01
2022-09-22T08:38:23.238Z,54.03
2022-09-22T08:40:58.492Z,53.95
2022-09-22T08:43:26.397Z,52.47
2022-09-22T08:45:53.668Z,53.30
2022-09-22T08:48:40.159Z,52.85
2022-09-22T08:51:29.934Z,50.83
2022-09-22T08:54:02.426Z,49.79
2022-09-22T08:56:44.869Z,50.86
2022-09-22T08:59:19.082Z,47.76
2022-09-22T09:02:05.320Z,48.90
2022-09-22T09:04:47.897Z,47.18
2022-09-22T09:07:34.215Z,48.73
2022-09-22T09:10:28.320Z,49.73
2022-09-22T09:13:14.575Z,48.98
2022-09-22T09:15:45.530Z,46.54
2022-09-22T09:18:17.596Z,46.12
2022-09-22T09:20:45.776Z,45.15
2022-09-22T09:23:16.261Z,45.66
2022-09-22T09:25:44.076Z,45.30
2022-09-22T09:28:15.815Z,44.76
2022-09-22T09:30:44.313Z,45.73
2022-09-22T09:33:14.567Z,44.17
2022-09-22T09:35:52.220Z,43.48
2022-09-22T09:38:27.932Z,42.33
2022-09-22T09:41:21.575Z,41.73
2022-09-22T09:43:53.124Z,43.43
2022-09-22T09:46:24.837Z,42.90
2022-09-22T09:49:02.748Z,41.85
2022-09-22T09:51:30.078Z,40.50
2022-09-22T09:53:57.703Z,41.30
2022-09-22T09:56:28.678Z,40.90
2022-09-22T09:59:15.379Z,42.64
2022-09-22T10:01:43.469Z,40.22
2022-09-22T10:04:29.886Z,40.85
2022-09-22T10:07:17.375Z,40.78
2022-09-22T10:09:44.963Z,40.57
2022-09-22T10:12:28.687Z,40.74
2022-09-22T10:14:57.380Z,40.91
2022-09-22T10:17:28.697Z,42.08
2022-09-22T10:20:16.183Z,40.22
2022-09-22T10:22:43.460Z,40.53
2022-09-22T10:25:32.570Z,40.34
2022-09-22T10:28:04.332Z,40.61
2022-09-22T10:30:37.783Z,41.16
2022-09-22T10:33:05.598Z,40.76
2022-09-22T10:35:36.894Z,41.50
2022-09-22T10:38:10.352Z,40.95
2022-09-22T10:40:39.215Z,39.79
2022-09-22T10:43:07.364Z,37.69
2022-09-22T10:45:40.040Z,38.67
2022-09-22T10:48:27.776Z,37.24
2022-09-22T10:50:55.668Z,36.81
2022-09-22T10:53:42.035Z,38.53
2022-09-22T10:56:12.227Z,37.22
2022-09-22T10:58:39.784Z,35.70
2022-09-22T11:01:10.573Z,37.55
2022-09-22T11:03:50.152Z,37.87
2022-09-22T11:07:08.562Z,36.14
2022-09-22T11:10:09.709Z,36.79
2022-09-22T11:12:57.415Z,37.53
2022-09-22T11:15:30.752Z,36.91
2022-09-22T11:18:17.409Z,37.91
2022-09-22T11:20:48.823Z,36.81
2022-09-22T11:23:17.100Z,37.83
2022-09-22T11:25:47.594Z,37.59
2022-09-22T11:28:20.905Z,38.44
2022-09-22T11:30:51.715Z,36.80
2022-09-22T11:33:37.671Z,36.05
2022-09-22T11:36:07.628Z,35.59
2022-09-22T11:38:44.245Z,37.72
2022-09-22T11:41:20.722Z,36.94
2022-09-22T11:43:52.613Z,35.85
2022-09-22T11:46:40.115Z,36.32
2022-09-22T11:49:30.149Z,36.04
2022-09-22T11:51:57.614Z,36.59
2022-09-22T11:54:27.922Z,36.26
2022-09-22T11:56:57.144Z,35.90
2022-09-22T11:59:27.961Z,35.02
2022-09-22T12:01:55.555Z,37.15
2022-09-22T12:04:36.481Z,35.09
2022-09-22T12:07:06.631Z,34.42
2022-09-22T12:09:36.859Z,33.74
2022-09-22T12:12:04.623Z,34.41
2022-09-22T12:14:32.183Z,35.07
2022-09-22T12:17:29.039Z,34.35
2022-09-22T12:20:03.458Z,33.87
2022-09-22T12:22:33.169Z,33.83
2022-09-22T12:25:01.471Z,33.97
2022-09-22T12:27:29.082Z,33.76
2022-09-22T12:29:59.379Z,39.79
2022-09-22T12:32:33.013Z,38.93
2022-09-22T12:35:00.612Z,38.55
2022-09-22T12:38:14.913Z,38.09
2022-09-22T12:40:43.398Z,36.90
2022-09-22T12:43:20.449Z,37.36
2022-09-22T12:45:49.590Z,37.95
2022-09-22T12:48:25.430Z,39.08
2022-09-22T12:50:53.580Z,38.17
2022-09-22T12:53:20.934Z,40.10
2022-09-22T12:55:56.098Z,39.87
2022-09-22T12:58:24.025Z,41.37
2022-09-22T13:00:56.365Z,40.90
2022-09-22T13:03:27.049Z,40.46
2022-09-22T13:06:02.377Z,40.50
2022-09-22T13:08:30.035Z,40.12
2022-09-22T13:11:08.304Z,39.76
2022-09-22T13:13:46.810Z,39.99
2022-09-22T13:16:14.307Z,40.73
2022-09-22T13:18:45.788Z,41.40
2022-09-22T13:21:13.129Z,41.74
2022-09-22T13:23:49.390Z,42.28
2022-09-22T13:26:32.591Z,41.61
2022-09-22T13:29:06.892Z,42.15
2022-09-22T13:31:46.209Z,42.12
2022-09-22T13:34:31.157Z,42.85
2022-09-22T13:37:28.320Z,43.47
2022-09-22T13:39:55.888Z,43.72
2022-09-22T13:42:32.425Z,44.29
2022-09-22T13:45:06.444Z,44.14
2022-09-22T13:47:35.276Z,43.68
2022-09-22T13:50:05.927Z,43.14
2022-09-22T13:52:36.566Z,43.15
2022-09-22T13:55:10.180Z,43.09
2022-09-22T13:57:38.012Z,43.20
2022-09-22T14:00:07.295Z,43.32
2022-09-22T14:02:35.208Z,42.98
2022-09-22T14:05:17.915Z,43.84
2022-09-22T14:08:07.919Z,43.42
2022-09-22T14:10:33.727Z,42.90
2022-09-22T14:13:01.447Z,43.79
2022-09-22T14:15:37.748Z,43.27
2022-09-22T14:18:21.479Z,43.07
2022-09-22T14:20:49.073Z,40.50
2022-09-22T14:23:20.814Z,39.69
2022-09-22T14:25:48.284Z,39.28
2022-09-22T14:28:22.623Z,39.51
2022-09-22T14:30:50.469Z,38.88
2022-09-22T14:33:22.512Z,38.90
2022-09-22T14:35:52.170Z,39.41
2022-09-22T14:38:26.558Z,40.08
2022-09-22T14:40:59.224Z,40.05
2022-09-22T14:43:37.100Z,40.57
2022-09-22T14:46:22.907Z,41.34
2022-09-22T14:48:50.847Z,41.00
2022-09-22T14:51:21.914Z,40.16
2022-09-22T14:54:02.735Z,40.57
2022-09-22T14:56:32.876Z,40.17
2022-09-22T14:59:25.592Z,38.93
2022-09-22T15:02:13.983Z,39.20
2022-09-22T15:04:50.799Z,39.24
2022-09-22T15:07:45.614Z,38.34
2022-09-22T15:10:31.970Z,40.29
2022-09-22T15:13:27.055Z,39.66
2022-09-22T15:15:54.607Z,40.48
2022-09-22T15:18:22.396Z,41.82
2022-09-22T15:20:59.006Z,41.40
2022-09-22T15:23:32.441Z,43.54
2022-09-22T15:26:04.980Z,45.81
2022-09-22T15:28:37.637Z,44.99
2022-09-22T15:31:05.636Z,44.44
2022-09-22T15:33:33.414Z,44.90
2022-09-22T15:36:03.366Z,45.84
2022-09-22T15:38:33.376Z,45.19
2022-09-22T15:41:02.105Z,45.64
2022-09-22T15:43:31.164Z,45.07
2022-09-22T15:46:01.204Z,45.68
2022-09-22T15:48:39.777Z,45.45
2022-09-22T15:51:11.962Z,45.13
2022-09-22T15:53:41.653Z,45.07
2022-09-22T15:56:14.433Z,45.52
2022-09-22T15:58:43.727Z,46.50
2022-09-22T16:01:11.488Z,45.86
2022-09-22T16:03:41.488Z,45.68
2022-09-22T16:06:13.419Z,46.28
2022-09-22T16:08:48.010Z,47.58
2022-09-22T16:11:18.725Z,46.69
2022-09-22T16:13:48.456Z,46.75
2022-09-22T16:16:18.320Z,46.51
2022-09-22T16:18:46.059Z,46.94
2022-09-22T16:21:22.970Z,47.24
2022-09-22T16:23:50.728Z,47.29
2022-09-22T16:26:18.200Z,46.91
2022-09-22T16:28:45.729Z,46.82
2022-09-22T16:31:14.842Z,46.66
2022-09-22T16:33:42.565Z,46.93
2022-09-22T16:36:10.078Z,47.93
2022-09-22T16:38:39.514Z,44.94
2022-09-22T16:41:18.475Z,42.77
2022-09-22T16:43:47.222Z,43.20
2022-09-22T16:46:31.348Z,44.08
2022-09-22T16:49:05.384Z,41.85
2022-09-22T16:51:36.373Z,42.22
2022-09-22T16:54:07.137Z,42.21
2022-09-22T16:56:37.824Z,41.88
2022-09-22T16:59:05.756Z,42.11
2022-09-22T17:01:36.947Z,41.75
2022-09-22T17:04:06.275Z,42.45
2022-09-22T17:06:36.118Z,43.47
2022-09-22T17:09:05.200Z,43.71
2022-09-22T17:11:36.592Z,44.54
2022-09-22T17:14:11.310Z,43.91
2022-09-22T17:16:45.356Z,43.67
2022-09-22T17:19:18.463Z,44.04
2022-09-22T17:21:47.897Z,44.49
2022-09-22T17:24:16.044Z,45.12
2022-09-22T17:26:48.792Z,45.32
2022-09-22T17:29:25.138Z,45.19
2022-09-22T17:31:57.802Z,45.49
2022-09-22T17:34:28.480Z,45.54
2022-09-22T17:36:56.444Z,46.32
2022-09-22T17:39:25.194Z,46.34
2022-09-22T17:41:53.333Z,47.29
2022-09-22T17:44:21.576Z,46.97
2022-09-22T17:47:11.088Z,47.24
2022-09-22T17:49:58.540Z,47.34
2022-09-22T17:52:29.404Z,47.66
2022-09-22T17:55:08.268Z,47.71
2022-09-22T17:57:43.854Z,47.56
2022-09-22T18:00:14.351Z,47.56
2022-09-22T18:02:42.426Z,47.56
2022-09-22T18:05:12.544Z,47.71
2022-09-22T18:07:40.603Z,47.53
2022-09-22T18:10:10.202Z,47.95
2022-09-22T18:12:38.209Z,48.83
2022-09-22T18:15:06.375Z,48.32
2022-09-22T18:17:41.379Z,47.88
2022-09-22T18:20:20.839Z,48.15
2022-09-22T18:22:49.165Z,48.15
2022-09-22T18:25:19.412Z,47.68
2022-09-22T18:27:48.564Z,47.96
2022-09-22T18:30:17.706Z,47.19
2022-09-22T18:32:45.814Z,47.60
2022-09-22T18:35:14.381Z,46.60
2022-09-22T18:37:42.324Z,46.48
2022-09-22T18:40:12.373Z,46.54
2022-09-22T18:42:41.610Z,47.40
2022-09-22T18:45:11.249Z,46.51
2022-09-22T18:47:40.947Z,46.27
2022-09-22T18:50:09.865Z,46.54
2022-09-22T18:52:38.237Z,46.07
2022-09-22T18:55:09.354Z,46.04
2022-09-22T18:57:38.745Z,46.20
2022-09-22T19:00:07.273Z,46.23
2022-09-22T19:02:34.852Z,46.23
2022-09-22T19:05:02.833Z,46.76
2022-09-22T19:07:44.180Z,46.04
2022-09-22T19:10:15.064Z,45.81
2022-09-22T19:12:42.989Z,46.24
2022-09-22T19:15:13.951Z,45.92
2022-09-22T19:17:44.246Z,45.44
2022-09-22T19:20:17.460Z,45.53
2022-09-22T19:22:46.856Z,44.92
2022-09-22T19:25:14.950Z,45.08
2022-09-22T19:27:42.636Z,45.16
2022-09-22T19:30:11.562Z,45.21
2022-09-22T19:32:40.230Z,45.49
2022-09-22T19:35:09.127Z,46.05
2022-09-22T19:37:37.161Z,45.68
2022-09-22T19:40:06.158Z,45.91
2022-09-22T19:42:39.963Z,45.71
2022-09-22T19:45:09.067Z,45.60
2022-09-22T19:47:39.591Z,45.62
2022-09-22T19:50:08.017Z,46.07
2022-09-22T19:52:36.451Z,46.39
2022-09-22T19:55:06.957Z,46.74
2022-09-22T19:57:41.227Z,45.99
2022-09-22T20:00:11.636Z,45.82
2022-09-22T20:02:39.116Z,45.71
2022-09-22T20:05:17.409Z,45.68
2022-09-22T20:07:44.825Z,45.42
2022-09-22T20:10:13.482Z,45.15
2022-09-22T20:12:41.023Z,45.43
2022-09-22T20:15:08.786Z,45.20
2022-09-22T20:17:36.522Z,44.93
2022-09-22T20:20:04.295Z,45.26
2022-09-22T20:22:32.090Z,45.04
2022-09-22T20:25:01.465Z,44.78
2022-09-22T20:27:36.219Z,45.02
2022-09-22T20:30:04.471Z,44.48
2022-09-22T20:32:32.155Z,44.73
2022-09-22T20:34:59.667Z,44.80
2022-09-22T20:37:27.479Z,44.39
2022-09-22T20:39:56.420Z,45.04
2022-09-22T20:42:24.258Z,44.40
2022-09-22T20:44:52.008Z,44.25
2022-09-22T20:47:21.931Z,44.12
2022-09-22T20:49:51.910Z,43.96
2022-09-22T20:52:20.934Z,44.06
2022-09-22T20:54:49.000Z,45.20
2022-09-22T20:57:17.034Z,45.82
2022-09-22T20:59:45.907Z,45.53
2022-09-22T21:02:14.558Z,45.40
2022-09-22T21:04:42.227Z,45.08
2022-09-22T21:07:11.407Z,45.23
2022-09-22T21:09:59.313Z,44.92
2022-09-22T21:12:31.122Z,44.80
2022-09-22T21:14:59.092Z,45.18
2022-09-22T21:17:31.124Z,45.53
2022-09-22T21:19:58.660Z,45.29
2022-09-22T21:22:29.206Z,45.32
2022-09-22T21:24:57.167Z,44.95
2022-09-22T21:27:25.160Z,45.01
2022-09-22T21:29:53.482Z,45.10
2022-09-22T21:32:21.262Z,46.10
2022-09-22T21:34:48.788Z,46.84
2022-09-22T21:37:16.256Z,45.88
2022-09-22T21:39:44.062Z,45.75
2022-09-22T21:42:11.618Z,44.91
2022-09-22T21:44:39.190Z,45.01
2022-09-22T21:47:06.953Z,44.82
2022-09-22T21:49:34.392Z,45.00
2022-09-22T21:52:01.877Z,44.66
2022-09-22T21:54:31.202Z,44.67
2022-09-22T21:56:58.707Z,45.52
2022-09-22T21:59:26.158Z,45.34
2022-09-22T22:01:53.922Z,46.04
2022-09-22T22:04:21.829Z,46.28
2022-09-22T22:06:49.304Z,45.06
2022-09-22T22:09:18.962Z,44.96
2022-09-22T22:11:49.400Z,44.95
2022-09-22T22:14:19.461Z,45.68
2022-09-22T22:16:49.664Z,45.81
2022-09-22T22:19:20.346Z,45.90
2022-09-22T22:21:50.681Z,45.66
2022-09-22T22:24:23.165Z,45.98
2022-09-22T22:26:58.322Z,47.31
2022-09-22T22:29:27.328Z,47.21
2022-09-22T22:31:55.036Z,47.48
2022-09-22T22:34:25.672Z,47.31
2022-09-22T22:36:54.408Z,47.58
2022-09-22T22:39:22.144Z,46.52
2022-09-22T22:41:49.888Z,46.67
2022-09-22T22:44:17.923Z,46.77
2022-09-22T22:46:46.184Z,47.15
2022-09-22T22:49:13.763Z,46.81
2022-09-22T22:51:43.410Z,46.68
2022-09-22T22:54:12.181Z,46.86
2022-09-22T22:56:42.472Z,46.92
2022-09-22T22:59:11.527Z,47.00
2022-09-22T23:01:40.435Z,47.19
2022-09-22T23:04:10.349Z,47.01
2022-09-22T23:06:40.142Z,47.07
2022-09-22T23:09:10.295Z,47.23
2022-09-22T23:11:40.089Z,47.47
2022-09-22T23:14:11.345Z,47.59
2022-09-22T23:16:41.313Z,47.81
2022-09-22T23:19:11.797Z,47.66
2022-09-22T23:21:39.847Z,48.17
2022-09-22T23:24:08.397Z,48.92
2022-09-22T23:26:37.525Z,48.51
2022-09-22T23:29:06.291Z,49.06
2022-09-22T23:31:33.897Z,49.65
2022-09-22T23:34:01.315Z,49.78
2022-09-22T23:36:29.461Z,49.20
2022-09-22T23:39:03.812Z,48.87
2022-09-22T23:41:33.683Z,49.02
2022-09-22T23:44:02.899Z,49.15
2022-09-22T23:46:30.723Z,48.71
2022-09-22T23:49:00.197Z,48.48
2022-09-22T23:51:28.124Z,48.21
2022-09-22T23:53:56.371Z,48.26
2022-09-22T23:56:24.849Z,48.61
2022-09-22T23:58:52.486Z,48.31
